createdAt,value
2023-01-05T00:00:07.313Z,5.37
2023-01-05T00:03:09.036Z,5.39
2023-01-05T00:06:13.508Z,5.47
2023-01-05T00:09:17.583Z,5.42
2023-01-05T00:12:38.164Z,5.33
2023-01-05T00:15:58.383Z,5.31
2023-01-05T00:19:18.553Z,5.31
2023-01-05T00:22:33.656Z,5.27
2023-01-05T00:25:40.976Z,5.26
2023-01-05T00:28:42.637Z,5.28
2023-01-05T00:31:44.622Z,5.27
2023-01-05T00:34:46.463Z,5.26
2023-01-05T00:37:48.222Z,5.28
2023-01-05T00:40:49.908Z,5.32
2023-01-05T00:43:51.679Z,5.32
2023-01-05T00:46:53.404Z,5.33
2023-01-05T00:49:55.107Z,5.34
2023-01-05T00:52:56.887Z,5.28
2023-01-05T00:55:58.862Z,5.28
2023-01-05T00:59:00.639Z,5.28
2023-01-05T01:02:02.486Z,5.30
2023-01-05T01:05:05.375Z,5.24
2023-01-05T01:08:07.236Z,5.37
2023-01-05T01:11:10.544Z,5.35
2023-01-05T01:14:13.773Z,5.30
2023-01-05T01:17:17.207Z,5.24
2023-01-05T01:20:19.107Z,5.24
2023-01-05T01:23:20.808Z,5.20
2023-01-05T01:26:22.437Z,5.18
2023-01-05T01:29:24.525Z,5.19
2023-01-05T01:32:26.269Z,5.26
2023-01-05T01:35:27.923Z,5.22
2023-01-05T01:38:29.684Z,5.23
2023-01-05T01:41:31.436Z,5.30
2023-01-05T01:44:56.232Z,5.33
2023-01-05T01:48:00.735Z,5.36
2023-01-05T01:51:12.010Z,5.28
2023-01-05T01:54:18.206Z,5.45
2023-01-05T01:57:21.986Z,5.43
2023-01-05T02:00:23.782Z,5.41
2023-01-05T02:03:25.977Z,5.40
2023-01-05T02:06:27.688Z,5.33
2023-01-05T02:09:29.767Z,5.33
2023-01-05T02:13:05.038Z,5.39
2023-01-05T02:16:21.521Z,5.36
2023-01-05T02:19:26.427Z,5.38
2023-01-05T02:22:36.985Z,5.42
2023-01-05T02:26:02.052Z,5.43
2023-01-05T02:29:06.464Z,5.44
2023-01-05T02:32:23.112Z,5.36
2023-01-05T02:35:40.406Z,5.40
2023-01-05T02:39:30.901Z,5.40
2023-01-05T02:42:35.679Z,5.31
2023-01-05T02:45:37.419Z,5.26
2023-01-05T02:48:42.326Z,5.19
2023-01-05T02:51:49.331Z,5.25
2023-01-05T02:54:56.603Z,5.25
2023-01-05T02:58:18.475Z,5.30
2023-01-05T03:01:25.683Z,5.32
2023-01-05T03:04:50.853Z,5.31
2023-01-05T03:08:06.770Z,5.26
2023-01-05T03:11:30.263Z,5.26
2023-01-05T03:14:38.296Z,5.34
2023-01-05T03:17:44.415Z,5.40
2023-01-05T03:20:51.386Z,5.40
2023-01-05T03:24:15.226Z,5.42
2023-01-05T03:27:36.544Z,5.47
2023-01-05T03:31:25.753Z,5.44
2023-01-05T03:35:00.979Z,5.47
2023-01-05T03:38:24.569Z,5.44
2023-01-05T03:41:27.415Z,5.51
2023-01-05T03:44:29.175Z,5.34
2023-01-05T03:47:30.871Z,5.27
2023-01-05T03:50:32.656Z,5.24
2023-01-05T03:53:34.466Z,5.26
2023-01-05T03:56:36.133Z,5.30
2023-01-05T03:59:37.805Z,5.33
2023-01-05T04:02:39.727Z,5.34
2023-01-05T04:05:41.607Z,5.35
2023-01-05T04:08:43.485Z,5.34
2023-01-05T04:11:45.653Z,5.34
2023-01-05T04:14:47.409Z,5.36
2023-01-05T04:17:49.082Z,5.22
2023-01-05T04:20:50.764Z,5.16
2023-01-05T04:23:52.508Z,5.16
2023-01-05T04:26:54.245Z,5.14
2023-01-05T04:29:56.001Z,5.16
2023-01-05T04:32:57.770Z,5.15
2023-01-05T04:35:59.519Z,5.14
2023-01-05T04:39:01.396Z,5.14
2023-01-05T04:42:03.285Z,5.22
2023-01-05T04:45:05.872Z,5.26
2023-01-05T04:48:07.698Z,5.30
2023-01-05T04:51:09.563Z,5.37
2023-01-05T04:54:11.214Z,5.31
2023-01-05T04:57:12.890Z,5.34
2023-01-05T05:00:14.866Z,5.32
2023-01-05T05:03:16.598Z,5.32
2023-01-05T05:06:18.539Z,5.23
2023-01-05T05:09:20.367Z,5.18
2023-01-05T05:12:22.114Z,5.07
2023-01-05T05:15:23.896Z,5.14
2023-01-05T05:18:25.691Z,5.10
2023-01-05T05:21:27.530Z,5.12
2023-01-05T05:24:29.245Z,5.11
2023-01-05T05:27:30.948Z,5.08
2023-01-05T05:30:32.883Z,5.12
2023-01-05T05:33:34.642Z,5.13
2023-01-05T05:36:38.041Z,5.14
2023-01-05T05:39:39.727Z,5.15
2023-01-05T05:42:41.421Z,5.13
2023-01-05T05:45:50.013Z,5.19
2023-01-05T05:48:52.264Z,5.21
2023-01-05T05:51:53.946Z,5.20
2023-01-05T05:54:55.639Z,5.21
2023-01-05T05:57:57.453Z,5.14
2023-01-05T06:00:59.697Z,5.05
2023-01-05T06:04:01.407Z,5.02
2023-01-05T06:07:03.059Z,5.04
2023-01-05T06:10:05.200Z,5.05
2023-01-05T06:13:07.089Z,5.05
2023-01-05T06:16:08.862Z,5.00
2023-01-05T06:19:10.807Z,4.96
2023-01-05T06:22:12.459Z,4.92
2023-01-05T06:25:14.251Z,4.86
2023-01-05T06:28:20.249Z,4.78
2023-01-05T06:31:22.315Z,4.79
2023-01-05T06:34:24.159Z,4.80
2023-01-05T06:37:25.809Z,4.77
2023-01-05T06:40:27.575Z,4.72
2023-01-05T06:43:29.234Z,4.75
2023-01-05T06:46:31.125Z,4.73
2023-01-05T06:49:32.830Z,4.70
2023-01-05T06:52:36.772Z,4.73
2023-01-05T06:55:39.032Z,4.73
2023-01-05T06:58:41.226Z,4.60
2023-01-05T07:01:42.934Z,4.62
2023-01-05T07:04:44.740Z,4.53
2023-01-05T07:07:46.466Z,4.47
2023-01-05T07:10:48.246Z,4.46
2023-01-05T07:13:50.661Z,4.51
2023-01-05T07:16:52.411Z,4.47
2023-01-05T07:19:54.315Z,4.43
2023-01-05T07:22:56.384Z,4.46
2023-01-05T07:26:01.362Z,4.45
2023-01-05T07:29:03.397Z,4.43
2023-01-05T07:32:05.516Z,4.43
2023-01-05T07:35:07.559Z,4.47
2023-01-05T07:38:09.284Z,4.49
2023-01-05T07:41:11.013Z,4.60
2023-01-05T07:44:12.842Z,4.71
2023-01-05T07:47:14.573Z,4.86
2023-01-05T07:50:16.301Z,4.77
2023-01-05T07:53:18.027Z,4.84
2023-01-05T07:56:22.963Z,4.94
2023-01-05T07:59:24.771Z,5.00
2023-01-05T08:02:32.259Z,4.95
2023-01-05T08:05:37.210Z,5.07
2023-01-05T08:08:39.296Z,5.14
2023-01-05T08:11:41.241Z,5.13
2023-01-05T08:14:42.943Z,5.13
2023-01-05T08:17:44.672Z,5.31
2023-01-05T08:20:58.061Z,5.25
2023-01-05T08:23:59.858Z,5.26
2023-01-05T08:27:01.574Z,5.29
2023-01-05T08:30:03.781Z,5.32
2023-01-05T08:33:05.541Z,5.34
2023-01-05T08:36:12.929Z,5.42
2023-01-05T08:39:14.862Z,5.48
2023-01-05T08:42:16.856Z,5.61
2023-01-05T08:45:19.299Z,5.67
2023-01-05T08:48:21.405Z,5.63
2023-01-05T08:51:23.671Z,5.74
2023-01-05T08:54:25.386Z,5.78
2023-01-05T08:57:27.031Z,5.85
2023-01-05T09:00:28.753Z,5.96
2023-01-05T09:03:30.446Z,6.04
2023-01-05T09:06:32.085Z,6.16
2023-01-05T09:09:34.265Z,6.20
2023-01-05T09:12:36.713Z,6.32
2023-01-05T09:15:38.402Z,6.36
2023-01-05T09:18:41.932Z,6.45
2023-01-05T09:21:44.614Z,6.45
2023-01-05T09:24:46.520Z,6.54
2023-01-05T09:27:48.200Z,6.63
2023-01-05T09:30:51.008Z,6.75
2023-01-05T09:33:52.999Z,6.86
2023-01-05T09:36:54.660Z,7.01
2023-01-05T09:39:56.299Z,7.08
2023-01-05T09:42:58.231Z,7.27
2023-01-05T09:46:01.221Z,7.46
2023-01-05T09:49:07.676Z,7.89
2023-01-05T09:52:12.215Z,8.20
2023-01-05T09:55:19.213Z,8.61
2023-01-05T09:58:30.036Z,8.56
2023-01-05T10:01:34.524Z,8.53
2023-01-05T10:04:36.451Z,8.58
2023-01-05T10:07:43.901Z,8.67
2023-01-05T10:11:07.479Z,8.75
2023-01-05T10:14:16.258Z,8.87
2023-01-05T10:21:06.651Z,9.46
2023-01-05T10:24:17.517Z,9.76
2023-01-05T10:27:58.148Z,9.89
2023-01-05T10:31:02.357Z,10.06
2023-01-05T10:34:20.951Z,10.22
2023-01-05T10:37:59.489Z,10.13
2023-01-05T10:41:20.720Z,10.04
2023-01-05T10:44:40.457Z,9.92
2023-01-05T10:47:45.140Z,9.84
2023-01-05T10:50:48.237Z,9.72
2023-01-05T10:53:49.989Z,9.64
2023-01-05T10:56:51.672Z,9.66
2023-01-05T11:00:02.012Z,9.68
2023-01-05T11:03:04.232Z,9.63
2023-01-05T11:06:13.410Z,9.66
2023-01-05T11:09:23.094Z,9.70
2023-01-05T11:12:26.159Z,9.72
2023-01-05T11:15:30.479Z,9.81
2023-01-05T11:18:50.269Z,9.88
2023-01-05T11:21:56.622Z,9.88
2023-01-05T11:25:27.725Z,9.89
2023-01-05T11:28:30.438Z,9.86
2023-01-05T11:31:42.812Z,9.87
2023-01-05T11:34:47.117Z,9.88
2023-01-05T11:37:49.007Z,9.84
2023-01-05T11:40:51.572Z,9.81
2023-01-05T11:43:54.450Z,9.92
2023-01-05T11:46:56.233Z,9.89
2023-01-05T11:49:58.918Z,9.89
2023-01-05T11:53:02.410Z,9.88
2023-01-05T11:56:24.165Z,9.90
2023-01-05T11:59:30.034Z,9.91
2023-01-05T12:02:54.620Z,9.96
2023-01-05T12:06:10.100Z,9.98
2023-01-05T12:09:34.988Z,10.01
2023-01-05T12:12:48.882Z,10.17
2023-01-05T12:16:17.800Z,10.21
2023-01-05T12:19:24.517Z,10.25
2023-01-05T12:22:44.427Z,10.39
2023-01-05T12:26:19.534Z,10.31
2023-01-05T12:31:06.458Z,10.33
2023-01-05T12:36:57.114Z,10.22
2023-01-05T12:40:24.935Z,10.23
2023-01-05T12:44:02.062Z,10.30
2023-01-05T12:47:06.502Z,10.43
2023-01-05T12:50:55.885Z,10.58
2023-01-05T12:54:27.544Z,10.68
2023-01-05T12:57:39.001Z,10.65
2023-01-05T13:00:45.994Z,10.52
2023-01-05T13:03:59.025Z,10.53
2023-01-05T13:07:09.976Z,10.48
2023-01-05T13:10:44.371Z,10.56
2023-01-05T13:13:56.887Z,10.55
2023-01-05T13:17:06.255Z,10.52
2023-01-05T13:20:31.275Z,10.42
2023-01-05T13:23:48.474Z,10.41
2023-01-05T13:26:50.300Z,10.34
2023-01-05T13:29:59.357Z,10.24
2023-01-05T13:33:22.676Z,10.19
2023-01-05T13:36:45.996Z,10.18
2023-01-05T13:40:07.257Z,10.07
2023-01-05T13:43:46.576Z,10.04
2023-01-05T13:47:28.022Z,10.00
2023-01-05T13:50:55.080Z,9.94
2023-01-05T13:54:02.013Z,9.83
2023-01-05T13:57:10.366Z,9.88
2023-01-05T14:00:35.746Z,9.80
2023-01-05T14:07:03.940Z,9.75
2023-01-05T14:10:06.963Z,9.68
2023-01-05T14:13:54.791Z,9.74
2023-01-05T14:16:56.719Z,9.70
2023-01-05T14:19:58.426Z,9.63
2023-01-05T14:23:02.088Z,9.62
2023-01-05T14:26:04.825Z,9.67
2023-01-05T14:29:08.074Z,9.62
2023-01-05T14:32:12.140Z,9.60
2023-01-05T14:35:20.103Z,9.59
2023-01-05T14:38:24.892Z,9.60
2023-01-05T14:41:29.802Z,9.63
2023-01-05T14:44:43.044Z,9.53
2023-01-05T14:47:48.241Z,9.53
2023-01-05T14:51:12.297Z,9.44
2023-01-05T14:54:14.171Z,9.42
2023-01-05T14:57:24.886Z,9.42
2023-01-05T15:00:48.232Z,9.43
2023-01-05T15:03:57.240Z,9.40
2023-01-05T15:07:11.048Z,9.44
2023-01-05T15:10:30.805Z,9.46
2023-01-05T15:14:20.178Z,9.44
2023-01-05T15:17:49.550Z,9.38
2023-01-05T15:21:26.949Z,9.48
2023-01-05T15:25:08.329Z,9.50
2023-01-05T15:28:18.825Z,9.49
2023-01-05T15:31:52.542Z,9.49
2023-01-05T15:35:15.754Z,9.38
2023-01-05T15:38:28.689Z,9.45
2023-01-05T15:41:30.449Z,9.45
2023-01-05T15:44:39.059Z,9.53
2023-01-05T15:47:40.887Z,9.55
2023-01-05T15:50:53.260Z,9.57
2023-01-05T15:54:01.022Z,9.70
2023-01-05T15:57:02.804Z,9.68
2023-01-05T16:00:17.901Z,9.72
2023-01-05T16:03:31.468Z,9.78
2023-01-05T16:06:33.408Z,9.82
2023-01-05T16:09:38.878Z,9.85
2023-01-05T16:12:40.635Z,9.79
2023-01-05T16:15:47.710Z,9.87
2023-01-05T16:18:53.947Z,9.83
2023-01-05T16:22:04.449Z,9.89
2023-01-05T16:25:12.264Z,9.92
2023-01-05T16:28:19.088Z,9.88
2023-01-05T16:31:54.442Z,9.85
2023-01-05T16:35:24.086Z,9.80
2023-01-05T16:38:28.462Z,9.69
2023-01-05T16:41:30.281Z,9.68
2023-01-05T16:44:34.319Z,9.60
2023-01-05T16:47:38.530Z,9.56
2023-01-05T16:50:55.540Z,9.58
2023-01-05T16:54:11.995Z,9.53
2023-01-05T16:57:42.858Z,9.46
2023-01-05T17:00:44.599Z,9.49
2023-01-05T17:03:46.401Z,9.53
2023-01-05T17:06:50.379Z,9.46
2023-01-05T17:09:52.457Z,9.50
2023-01-05T17:13:05.663Z,9.46
2023-01-05T17:16:11.147Z,9.49
2023-01-05T17:19:14.674Z,9.43
2023-01-05T17:22:16.895Z,9.30
2023-01-05T17:25:18.672Z,9.26
2023-01-05T17:28:24.611Z,9.17
2023-01-05T17:31:27.275Z,9.03
2023-01-05T17:34:29.130Z,9.01
2023-01-05T17:37:30.776Z,8.93
2023-01-05T17:40:32.796Z,8.94
2023-01-05T17:43:34.446Z,8.89
2023-01-05T17:46:40.506Z,8.77
2023-01-05T17:49:43.761Z,8.74
2023-01-05T17:52:45.556Z,8.66
2023-01-05T17:55:47.582Z,8.70
2023-01-05T17:58:49.674Z,8.66
2023-01-05T18:01:51.421Z,8.52
2023-01-05T18:04:53.307Z,8.49
2023-01-05T18:07:55.067Z,8.47
2023-01-05T18:10:56.801Z,8.34
2023-01-05T18:13:58.538Z,8.35
2023-01-05T18:17:00.214Z,8.33
2023-01-05T18:20:02.244Z,8.40
2023-01-05T18:23:03.960Z,8.39
2023-01-05T18:26:08.126Z,8.38
2023-01-05T18:29:09.964Z,8.34
2023-01-05T18:32:12.353Z,8.32
2023-01-05T18:35:14.129Z,8.30
2023-01-05T18:38:15.886Z,8.32
2023-01-05T18:41:23.098Z,8.31
2023-01-05T18:44:25.119Z,8.31
2023-01-05T18:47:26.834Z,8.30
2023-01-05T18:50:28.888Z,8.29
2023-01-05T18:53:30.560Z,8.29
2023-01-05T18:56:32.375Z,8.26
2023-01-05T18:59:34.293Z,8.18
2023-01-05T19:02:36.053Z,8.19
2023-01-05T19:05:40.775Z,8.17
2023-01-05T19:08:43.168Z,8.16
2023-01-05T19:11:46.886Z,8.12
2023-01-05T19:14:48.568Z,8.18
2023-01-05T19:17:53.242Z,8.14
2023-01-05T19:20:57.215Z,8.22
2023-01-05T19:24:00.720Z,8.26
2023-01-05T19:27:02.403Z,8.29
2023-01-05T19:30:04.553Z,8.34
2023-01-05T19:33:06.539Z,8.37
2023-01-05T19:36:15.188Z,8.53
2023-01-05T19:39:19.614Z,8.62
2023-01-05T19:42:21.469Z,8.66
2023-01-05T19:45:23.222Z,8.63
2023-01-05T19:48:25.061Z,8.58
2023-01-05T19:51:29.059Z,8.67
2023-01-05T19:54:30.963Z,9.01
2023-01-05T19:57:32.689Z,9.18
2023-01-05T20:00:34.519Z,9.15
2023-01-05T20:03:36.167Z,9.05
2023-01-05T20:06:40.945Z,9.11
2023-01-05T20:09:42.764Z,9.12
2023-01-05T20:12:44.437Z,9.06
2023-01-05T20:15:46.393Z,8.92
2023-01-05T20:18:48.113Z,8.76
2023-01-05T20:21:50.862Z,8.60
2023-01-05T20:24:52.832Z,8.53
2023-01-05T20:27:54.510Z,8.41
2023-01-05T20:30:56.879Z,8.25
2023-01-05T20:34:02.208Z,8.11
2023-01-05T20:37:07.323Z,8.00
2023-01-05T20:40:09.485Z,7.85
2023-01-05T20:43:11.430Z,7.78
2023-01-05T20:46:14.646Z,7.72
2023-01-05T20:49:17.846Z,7.74
2023-01-05T20:52:19.805Z,7.76
2023-01-05T20:55:21.540Z,7.71
2023-01-05T20:58:26.852Z,7.66
2023-01-05T21:01:28.988Z,7.66
2023-01-05T21:04:30.912Z,7.54
2023-01-05T21:07:32.663Z,7.57
2023-01-05T21:10:36.799Z,7.56
2023-01-05T21:13:38.481Z,7.54
2023-01-05T21:16:43.627Z,7.56
2023-01-05T21:19:45.328Z,7.50
2023-01-05T21:22:47.223Z,7.53
2023-01-05T21:26:06.038Z,7.66
2023-01-05T21:29:13.176Z,7.74
2023-01-05T21:32:15.174Z,7.86
2023-01-05T21:35:17.069Z,7.99
2023-01-05T21:38:18.736Z,8.04
2023-01-05T21:41:41.417Z,8.08
2023-01-05T21:44:43.143Z,8.20
2023-01-05T21:47:45.380Z,8.22
2023-01-05T21:51:05.739Z,8.29
2023-01-05T21:54:37.497Z,8.31
2023-01-05T21:57:39.206Z,8.47
2023-01-05T22:00:40.921Z,8.50
2023-01-05T22:03:42.723Z,8.57
2023-01-05T22:06:44.432Z,8.65
2023-01-05T22:09:46.133Z,8.70
2023-01-05T22:12:47.795Z,8.67
2023-01-05T22:15:51.538Z,8.68
2023-01-05T22:18:59.140Z,8.68
2023-01-05T22:22:00.911Z,8.76
2023-01-05T22:25:02.598Z,8.76
2023-01-05T22:28:04.505Z,8.75
2023-01-05T22:31:07.962Z,8.73
2023-01-05T22:34:09.672Z,8.73
2023-01-05T22:37:11.403Z,8.67
2023-01-05T22:40:13.321Z,8.64
2023-01-05T22:43:15.044Z,8.64
2023-01-05T22:46:26.075Z,8.62
2023-01-05T22:49:28.642Z,8.60
2023-01-05T22:52:30.312Z,8.55
2023-01-05T22:55:31.983Z,8.55
2023-01-05T22:58:33.694Z,8.53
2023-01-05T23:01:43.306Z,8.44
2023-01-05T23:04:45.069Z,8.41
2023-01-05T23:07:47.382Z,8.37
2023-01-05T23:10:49.142Z,8.37
2023-01-05T23:13:52.496Z,8.41
2023-01-05T23:16:54.229Z,8.43
2023-01-05T23:19:55.911Z,8.36
2023-01-05T23:22:57.617Z,8.31
2023-01-05T23:25:59.795Z,8.28
2023-01-05T23:29:01.894Z,8.36
2023-01-05T23:32:04.424Z,8.34
2023-01-05T23:35:07.929Z,8.27
2023-01-05T23:38:10.310Z,8.28
2023-01-05T23:41:13.433Z,8.31
2023-01-05T23:44:15.112Z,8.28
2023-01-05T23:47:16.797Z,8.30
2023-01-05T23:50:18.505Z,8.29
2023-01-05T23:53:20.549Z,8.20
2023-01-05T23:56:28.716Z,8.17
2023-01-05T23:59:30.416Z,8.19
